Time;durP1;ratioP1;P1;durP2;ratioP2;P2;SDS_P1;SDS_P2;PMS_P1;PMS_P2;Temp;Humidity;BMP_temperature;BMP_pressure;BME280_temperature;BME280_humidity;BME280_pressure;Samples;Min_cycle;Max_cycle;Signal;HPM_P1;HPM_P2
2022/07/21 00:01:14;;;;;;;2.50;1.90;;;25.30;62.10;;;;;;4823887;29;20150;-75
2022/07/21 00:03:39;;;;;;;2.33;1.85;;;25.30;62.20;;;;;;4823827;29;20077;-75
2022/07/21 00:06:06;;;;;;;2.53;1.80;;;25.30;62.20;;;;;;4822492;29;20042;-75
2022/07/21 00:08:32;;;;;;;2.50;1.92;;;25.30;62.20;;;;;;4837679;29;20059;-75
2022/07/21 00:10:58;;;;;;;2.90;1.95;;;25.20;62.10;;;;;;4823697;29;20117;-75
2022/07/21 00:13:23;;;;;;;2.40;1.98;;;25.30;62.20;;;;;;4823567;29;20169;-75
2022/07/21 00:15:50;;;;;;;2.67;1.73;;;25.20;62.10;;;;;;4823513;29;20480;-76
2022/07/21 00:18:17;;;;;;;3.00;1.90;;;25.30;62.20;;;;;;4823637;29;20034;-76
2022/07/21 00:20:43;;;;;;;2.65;1.80;;;25.30;62.10;;;;;;4822512;29;20035;-76
2022/07/21 00:23:09;;;;;;;2.47;1.85;;;25.30;62.10;;;;;;4837492;29;20037;-76
2022/07/21 00:25:36;;;;;;;2.33;1.80;;;25.30;62.10;;;;;;4837083;29;20030;-76
2022/07/21 00:28:05;;;;;;;2.33;1.70;;;25.30;62.60;;;;;;4823482;29;20480;-76
2022/07/21 00:30:32;;;;;;;2.80;1.98;;;25.30;62.00;;;;;;4823587;29;20027;-75
2022/07/21 00:32:58;;;;;;;2.92;2.03;;;25.30;62.00;;;;;;4822305;29;20041;-75
2022/07/21 00:35:24;;;;;;;3.08;1.85;;;25.30;62.00;;;;;;4821912;29;20034;-76
2022/07/21 00:37:50;;;;;;;2.38;1.60;;;25.30;62.00;;;;;;4837481;29;20034;-76
2022/07/21 00:40:16;;;;;;;3.45;2.08;;;25.30;62.00;;;;;;4823356;29;20580;-76
2022/07/21 00:42:43;;;;;;;3.83;2.30;;;25.30;62.00;;;;;;4807426;29;20124;-76
2022/07/21 00:45:09;;;;;;;3.40;2.25;;;25.30;62.00;;;;;;4822979;29;20100;-75
2022/07/21 00:47:36;;;;;;;3.22;1.92;;;25.30;61.90;;;;;;4823212;29;20409;-76
2022/07/21 00:50:08;;;;;;;2.67;1.70;;;25.30;62.50;;;;;;4823319;29;20088;-76
2022/07/21 00:52:34;;;;;;;2.47;1.80;;;25.30;61.90;;;;;;4823280;29;20113;-76
2022/07/21 00:55:01;;;;;;;2.47;1.80;;;25.30;62.00;;;;;;4823034;29;20060;-76
2022/07/21 00:57:27;;;;;;;2.95;1.73;;;25.30;62.00;;;;;;4822919;29;20117;-76
2022/07/21 00:59:53;;;;;;;2.50;2.08;;;25.30;62.10;;;;;;4822266;29;20117;-75
2022/07/21 01:02:19;;;;;;;2.85;2.03;;;25.30;62.00;;;;;;4822996;29;20487;-75
2022/07/21 01:04:45;;;;;;;2.80;2.05;;;25.30;62.10;;;;;;4822849;29;20058;-76
2022/07/21 01:07:12;;;;;;;2.13;1.60;;;25.30;62.10;;;;;;4836738;29;20038;-75
2022/07/21 01:09:37;;;;;;;2.40;1.75;;;25.30;62.10;;;;;;4823025;29;20030;-75
2022/07/21 01:12:04;;;;;;;2.38;1.60;;;25.30;62.10;;;;;;4823005;29;20037;-76
2022/07/21 01:14:30;;;;;;;2.42;1.80;;;25.30;62.10;;;;;;4821660;29;20042;-75
2022/07/21 01:16:56;;;;;;;2.80;1.83;;;25.30;62.10;;;;;;4836527;29;20072;-76
2022/07/21 01:19:22;;;;;;;2.85;1.80;;;25.30;62.10;;;;;;4822981;29;20080;-75
2022/07/21 01:21:48;;;;;;;3.42;1.83;;;25.30;62.10;;;;;;4836994;29;20026;-75
2022/07/21 01:24:14;;;;;;;2.83;1.90;;;25.30;62.10;;;;;;4822766;29;20065;-75
2022/07/21 01:26:48;;;;;;;2.55;1.83;;;25.30;62.10;;;;;;4822513;29;20083;-75
2022/07/21 01:29:14;;;;;;;2.65;1.90;;;25.30;62.10;;;;;;4822744;29;20038;-76
2022/07/21 01:31:41;;;;;;;2.58;1.92;;;25.30;62.10;;;;;;4836732;29;20042;-76
2022/07/21 01:34:08;;;;;;;2.45;1.80;;;25.30;62.10;;;;;;4822422;29;20502;-75
2022/07/21 01:36:34;;;;;;;2.05;1.55;;;25.30;62.10;;;;;;4836497;29;20035;-75
2022/07/21 01:41:45;;;;;;;2.63;1.80;;;25.30;62.10;;;;;;4821709;29;20062;-75
2022/07/21 01:44:12;;;;;;;2.50;1.83;;;25.30;62.10;;;;;;4822674;29;20035;-75
2022/07/21 01:46:46;;;;;;;2.42;1.83;;;25.30;62.10;;;;;;4822341;29;20166;-75
2022/07/21 01:49:14;;;;;;;2.58;1.60;;;25.30;62.10;;;;;;4822610;29;20121;-76
2022/07/21 01:51:40;;;;;;;2.45;1.85;;;25.30;62.10;;;;;;4822880;29;20030;-76
2022/07/21 01:54:07;;;;;;;1.95;1.60;;;25.30;62.10;;;;;;4821245;29;20069;-75
2022/07/21 01:56:35;;;;;;;2.90;1.85;;;25.30;62.10;;;;;;4822169;29;20105;-75
2022/07/21 01:59:01;;;;;;;1.88;1.58;;;25.30;62.10;;;;;;4822544;29;20109;-75
2022/07/21 02:01:28;;;;;;;2.88;2.03;;;25.30;62.10;;;;;;4821544;29;20044;-76
2022/07/21 02:04:00;;;;;;;2.88;1.83;;;25.30;62.10;;;;;;4822489;29;20043;-76
2022/07/21 02:06:27;;;;;;;3.65;2.08;;;25.30;62.00;;;;;;4822327;29;20038;-76
2022/07/21 02:08:53;;;;;;;3.05;2.03;;;25.30;62.00;;;;;;4822422;29;20118;-75
2022/07/21 02:11:19;;;;;;;3.55;2.10;;;25.30;62.00;;;;;;4822284;29;20034;-76
2022/07/21 02:13:46;;;;;;;2.60;2.10;;;25.40;62.00;;;;;;4821192;29;20038;-76
2022/07/21 02:16:12;;;;;;;2.72;1.80;;;25.40;62.00;;;;;;4822040;29;20035;-75
2022/07/21 02:18:39;;;;;;;3.05;2.05;;;25.30;61.90;;;;;;4824329;29;20037;-75
2022/07/21 02:21:05;;;;;;;2.58;1.60;;;25.30;62.40;;;;;;4825401;29;20029;-75
2022/07/21 02:23:32;;;;;;;2.80;1.67;;;25.40;61.90;;;;;;4825320;29;20042;-75
2022/07/21 02:25:58;;;;;;;2.22;1.70;;;25.40;61.90;;;;;;4823965;29;20030;-75
2022/07/21 02:28:24;;;;;;;3.03;2.17;;;25.40;61.90;;;;;;4824246;29;20070;-75
2022/07/21 02:30:50;;;;;;;2.55;1.80;;;25.40;61.90;;;;;;4824166;29;20392;-75
2022/07/21 02:33:16;;;;;;;3.28;2.20;;;25.40;61.90;;;;;;4825094;29;20039;-75
2022/07/21 02:35:43;;;;;;;2.83;1.90;;;25.40;62.00;;;;;;4808737;29;20044;-76
2022/07/21 02:38:10;;;;;;;2.40;1.75;;;25.40;62.00;;;;;;4825648;29;20151;-75
2022/07/21 02:40:36;;;;;;;2.53;1.92;;;25.40;62.00;;;;;;4809028;29;20030;-75
2022/07/21 02:43:03;;;;;;;2.92;1.95;;;25.30;62.00;;;;;;4825060;29;20556;-75
2022/07/21 02:45:29;;;;;;;3.03;1.90;;;25.40;62.00;;;;;;4838863;29;20496;-76
2022/07/21 02:48:00;;;;;;;2.63;2.03;;;25.40;62.00;;;;;;4824000;29;20097;-76
2022/07/21 02:50:29;;;;;;;2.53;1.55;;;25.40;62.10;;;;;;4824919;29;20026;-76
2022/07/21 02:53:01;;;;;;;2.97;1.90;;;25.40;62.10;;;;;;4824921;29;20033;-76
2022/07/21 02:55:27;;;;;;;2.75;1.95;;;25.30;62.00;;;;;;4823513;29;20039;-76
2022/07/21 02:58:18;;;;;;;2.97;1.70;;;25.30;62.00;;;;;;4823812;29;20041;-76
2022/07/21 03:00:48;;;;;;;2.38;1.88;;;25.30;62.00;;;;;;4823552;29;20461;-76
2022/07/21 03:03:13;;;;;;;;;;;25.30;62.00;;;;;;4825193;29;20041;-76
2022/07/21 03:05:40;;;;;;;2.60;1.75;;;25.30;62.00;;;;;;4824388;29;20298;-76
2022/07/21 03:08:07;;;;;;;3.80;1.90;;;25.40;62.10;;;;;;4824714;29;20038;-76
2022/07/21 03:10:34;;;;;;;2.80;1.90;;;25.30;62.00;;;;;;4824623;29;20175;-76
2022/07/21 03:13:00;;;;;;;2.95;1.80;;;25.30;62.10;;;;;;4824563;29;20503;-76
2022/07/21 03:15:26;;;;;;;3.00;2.08;;;25.30;62.10;;;;;;4824252;29;20030;-76
2022/07/21 03:17:53;;;;;;;3.60;2.08;;;25.30;62.10;;;;;;4808321;29;20077;-76
2022/07/21 03:20:19;;;;;;;2.58;1.70;;;25.40;62.00;;;;;;4838636;29;20117;-76
2022/07/21 03:22:45;;;;;;;2.10;1.60;;;25.30;62.00;;;;;;4824528;29;20140;-76
2022/07/21 03:25:10;;;;;;;2.33;1.75;;;25.40;62.10;;;;;;4838130;29;20034;-76
2022/07/21 03:27:36;;;;;;;3.45;2.17;;;25.30;62.00;;;;;;4823442;29;20399;-76
2022/07/21 03:30:08;;;;;;;2.47;1.95;;;25.30;62.10;;;;;;4823027;29;20041;-76
2022/07/21 03:32:35;;;;;;;2.78;1.95;;;25.30;62.00;;;;;;4824378;29;20038;-76
2022/07/21 03:35:01;;;;;;;4.07;2.00;;;25.40;62.10;;;;;;4824107;29;20034;-76
2022/07/21 03:37:27;;;;;;;2.10;1.80;;;25.30;62.00;;;;;;4824103;29;20487;-76
2022/07/21 03:39:53;;;;;;;2.60;1.80;;;25.40;62.10;;;;;;4824205;29;20114;-76
2022/07/21 03:42:19;;;;;;;2.90;2.05;;;25.40;62.00;;;;;;4824180;29;20026;-76
2022/07/21 03:44:45;;;;;;;2.10;1.80;;;25.40;62.00;;;;;;4823993;29;20141;-76
2022/07/21 03:47:11;;;;;;;2.53;1.90;;;25.40;62.00;;;;;;4823824;29;20034;-76
2022/07/21 03:49:36;;;;;;;2.17;1.73;;;25.40;61.90;;;;;;4823050;29;20066;-76
2022/07/21 03:52:05;;;;;;;2.92;1.80;;;25.40;61.90;;;;;;4824227;29;20061;-76
2022/07/21 03:54:31;;;;;;;2.95;2.00;;;25.40;61.90;;;;;;4822819;29;20373;-76
2022/07/21 03:56:56;;;;;;;3.05;2.08;;;25.40;61.90;;;;;;4823778;29;20070;-76
2022/07/21 03:59:22;;;;;;;2.00;1.70;;;25.40;61.90;;;;;;4823884;29;20061;-76
2022/07/21 04:01:48;;;;;;;2.80;2.10;;;25.40;61.90;;;;;;4837842;29;20031;-76
2022/07/21 04:04:14;;;;;;;2.70;1.92;;;25.40;61.90;;;;;;4823830;29;20399;-75
2022/07/21 04:06:40;;;;;;;2.72;1.92;;;25.50;61.90;;;;;;4823583;29;20049;-76
2022/07/21 04:09:06;;;;;;;3.40;1.90;;;25.50;61.90;;;;;;4823765;29;20038;-76
2022/07/21 04:11:32;;;;;;;2.75;1.73;;;25.50;61.90;;;;;;4822773;29;20046;-76
2022/07/21 04:13:58;;;;;;;2.38;1.70;;;25.40;61.80;;;;;;4823537;29;20030;-76
2022/07/21 04:16:24;;;;;;;2.75;1.80;;;25.40;61.90;;;;;;4823471;29;20042;-75
2022/07/21 04:18:49;;;;;;;2.83;1.85;;;25.40;61.80;;;;;;4823703;29;20022;-75
2022/07/21 04:21:15;;;;;;;3.28;2.10;;;25.40;61.90;;;;;;4823658;29;20042;-76
2022/07/21 04:23:41;;;;;;;3.00;1.98;;;25.40;61.90;;;;;;4823528;29;20083;-75
2022/07/21 04:26:07;;;;;;;2.78;1.92;;;25.40;61.90;;;;;;4837177;29;20113;-75
2022/07/21 04:28:33;;;;;;;2.22;1.73;;;25.40;62.00;;;;;;4822274;29;20057;-75
2022/07/21 04:30:59;;;;;;;2.67;1.92;;;25.40;62.00;;;;;;4823839;29;20039;-75
2022/07/21 04:33:24;;;;;;;2.33;1.70;;;25.40;62.20;;;;;;4822184;29;20039;-77
2022/07/21 04:35:50;;;;;;;3.17;2.17;;;25.40;62.00;;;;;;4854249;23;20045;-77
2022/07/21 04:38:19;;;;;;;2.45;1.80;;;25.40;62.60;;;;;;4840909;29;20026;-78
2022/07/21 04:40:44;;;;;;;3.35;1.88;;;25.40;62.00;;;;;;4825380;29;20078;-79
2022/07/21 04:43:11;;;;;;;2.42;1.90;;;25.40;62.00;;;;;;4841439;29;20025;-80
2022/07/21 04:45:39;;;;;;;2.97;2.10;;;25.40;62.00;;;;;;4854901;29;20082;-81
2022/07/21 04:48:05;;;;;;;2.67;1.80;;;25.40;62.00;;;;;;4841349;29;20033;-80
2022/07/21 04:50:32;;;;;;;2.65;1.88;;;25.40;62.00;;;;;;4841323;29;20113;-80
2022/07/21 04:52:58;;;;;;;3.30;2.20;;;25.40;62.00;;;;;;4840237;29;20022;-80
2022/07/21 04:55:25;;;;;;;3.78;2.45;;;25.40;62.00;;;;;;4839945;29;20082;-80
2022/07/21 04:57:52;;;;;;;3.30;2.13;;;25.40;62.00;;;;;;4841616;29;20406;-78
2022/07/21 05:00:21;;;;;;;2.47;1.83;;;25.40;62.00;;;;;;4841168;29;20514;-79
2022/07/21 05:02:47;;;;;;;2.30;1.90;;;25.40;62.00;;;;;;4825065;29;20030;-80
2022/07/21 05:05:14;;;;;;;2.92;2.05;;;25.40;61.90;;;;;;4824693;29;20129;-80
2022/07/21 05:07:40;;;;;;;4.03;2.10;;;25.40;62.00;;;;;;4839992;29;20040;-79
2022/07/21 05:10:07;;;;;;;3.97;2.10;;;25.40;61.90;;;;;;4825086;29;20045;-80
2022/07/21 05:12:33;;;;;;;3.80;2.35;;;25.40;62.00;;;;;;4840007;29;20038;-80
2022/07/21 05:14:59;;;;;;;4.15;1.70;;;25.40;62.00;;;;;;4839881;29;20038;-79
2022/07/21 05:17:25;;;;;;;3.17;2.03;;;25.40;61.90;;;;;;4839836;29;20030;-80
2022/07/21 05:19:51;;;;;;;3.85;2.05;;;25.40;62.00;;;;;;4840914;29;20026;-80
2022/07/21 05:22:17;;;;;;;3.03;2.10;;;25.40;61.90;;;;;;4824615;29;20041;-80
2022/07/21 05:24:45;;;;;;;2.90;1.98;;;25.50;62.50;;;;;;4840035;29;20403;-80
2022/07/21 05:27:17;;;;;;;3.33;1.92;;;25.50;61.90;;;;;;4839643;29;20033;-80
2022/07/21 05:29:44;;;;;;;2.85;2.10;;;25.50;61.90;;;;;;4839967;29;20034;-80
2022/07/21 05:32:10;;;;;;;2.88;2.17;;;25.50;61.90;;;;;;4840936;29;20514;-80
2022/07/21 05:34:36;;;;;;;3.58;2.28;;;25.50;61.80;;;;;;4824287;29;20042;-80
2022/07/21 05:37:02;;;;;;;2.92;2.00;;;25.50;61.80;;;;;;4840818;29;20510;-79
2022/07/21 05:39:28;;;;;;;4.15;2.50;;;25.50;61.80;;;;;;4855102;29;20030;-79
2022/07/21 05:41:54;;;;;;;2.50;1.88;;;25.50;61.80;;;;;;4840873;29;20061;-80
2022/07/21 05:44:20;;;;;;;3.20;2.08;;;25.50;61.80;;;;;;4840823;29;20058;-79
2022/07/21 05:46:46;;;;;;;2.58;2.03;;;25.50;61.80;;;;;;4840776;29;20041;-80
2022/07/21 05:49:12;;;;;;;2.65;2.05;;;25.50;61.80;;;;;;4855053;29;20034;-79
2022/07/21 05:51:37;;;;;;;3.75;2.17;;;25.50;61.80;;;;;;4842694;29;20030;-80
2022/07/21 05:54:03;;;;;;;2.55;1.98;;;25.50;61.80;;;;;;4844273;29;20551;-80
2022/07/21 05:56:29;;;;;;;3.72;2.38;;;25.50;61.90;;;;;;4844028;29;20075;-80
2022/07/21 05:58:55;;;;;;;3.88;2.30;;;25.50;61.80;;;;;;4844292;29;20514;-79
2022/07/21 06:01:20;;;;;;;3.05;2.03;;;25.50;61.80;;;;;;4844222;29;20041;-80
2022/07/21 06:03:49;;;;;;;3.20;2.35;;;25.50;61.90;;;;;;4844201;29;20121;-79
2022/07/21 06:06:17;;;;;;;3.15;2.05;;;25.50;62.50;;;;;;4843665;29;20037;-80
2022/07/21 06:08:44;;;;;;;2.80;2.10;;;25.50;61.90;;;;;;4844066;29;20026;-80
2022/07/21 06:11:13;;;;;;;3.10;2.33;;;25.50;61.90;;;;;;4844072;29;20034;-81
2022/07/21 06:13:39;;;;;;;3.70;2.20;;;25.50;61.90;;;;;;4842887;29;20042;-80
2022/07/21 06:16:06;;;;;;;2.67;2.15;;;25.50;61.90;;;;;;4842657;29;20037;-80
2022/07/21 06:18:32;;;;;;;3.60;2.17;;;25.50;62.00;;;;;;4827270;29;20511;-79
2022/07/21 06:20:58;;;;;;;3.10;2.20;;;25.50;62.00;;;;;;4843937;29;20026;-78
2022/07/21 06:23:24;;;;;;;3.50;2.33;;;25.50;62.00;;;;;;4827478;29;20045;-78
2022/07/21 06:25:51;;;;;;;3.22;2.38;;;25.50;62.00;;;;;;4843527;29;20061;-78
2022/07/21 06:28:17;;;;;;;6.43;2.70;;;25.50;62.00;;;;;;4842691;29;20049;-78
2022/07/21 06:30:43;;;;;;;3.35;2.50;;;25.50;62.00;;;;;;4842701;29;20460;-79
2022/07/21 06:33:11;;;;;;;3.20;2.53;;;25.50;62.00;;;;;;4857780;29;20034;-79
2022/07/21 06:35:38;;;;;;;2.85;2.25;;;25.50;62.00;;;;;;4843223;29;20038;-79
2022/07/21 06:38:04;;;;;;;3.85;2.63;;;25.50;62.00;;;;;;4844001;29;20030;-79
2022/07/21 06:40:31;;;;;;;3.15;2.20;;;25.50;62.00;;;;;;4842337;29;20034;-78
2022/07/21 06:42:57;;;;;;;4.28;2.30;;;25.50;62.10;;;;;;4842550;29;20387;-78
2022/07/21 06:45:23;;;;;;;5.07;2.45;;;25.50;62.00;;;;;;4841789;29;20402;-78
2022/07/21 06:47:49;;;;;;;4.97;2.53;;;25.50;62.00;;;;;;4843609;29;20034;-79
2022/07/21 06:50:16;;;;;;;3.95;2.60;;;25.50;62.00;;;;;;4842184;29;20034;-79
2022/07/21 06:52:42;;;;;;;4.38;2.40;;;25.50;62.10;;;;;;4842062;29;20483;-79
2022/07/21 06:55:09;;;;;;;2.78;2.03;;;25.50;62.00;;;;;;4841724;29;20125;-79
2022/07/21 06:57:36;;;;;;;3.10;2.38;;;25.50;62.00;;;;;;4842200;29;20034;-79
2022/07/21 07:00:06;;;;;;;2.90;2.10;;;25.50;62.00;;;;;;4841957;29;20427;-80
2022/07/21 07:02:32;;;;;;;3.60;2.60;;;25.50;62.00;;;;;;4842865;29;20029;-79
2022/07/21 07:04:58;;;;;;;3.25;2.45;;;25.60;62.10;;;;;;4841803;29;20038;-79
2022/07/21 07:07:24;;;;;;;3.40;2.20;;;25.50;61.90;;;;;;4841717;29;20037;-79
2022/07/21 07:09:49;;;;;;;4.72;2.65;;;25.60;62.00;;;;;;4843141;29;20292;-79
2022/07/21 07:12:15;;;;;;;3.63;2.70;;;25.60;62.00;;;;;;4872724;29;20048;-80
2022/07/21 07:14:41;;;;;;;3.45;2.53;;;25.50;61.40;;;;;;4841571;29;20475;-80
2022/07/21 07:17:07;;;;;;;4.50;2.80;;;25.60;62.00;;;;;;4842807;29;20032;-80
2022/07/21 07:19:33;;;;;;;3.42;2.47;;;25.60;61.90;;;;;;4857049;29;20446;-81
2022/07/21 07:21:59;;;;;;;4.55;2.50;;;25.60;61.90;;;;;;4856948;29;20034;-78
2022/07/21 07:24:24;;;;;;;2.85;2.25;;;25.70;62.00;;;;;;4826362;29;20527;-78
2022/07/21 07:26:50;;;;;;;3.75;2.60;;;25.70;62.00;;;;;;4826360;29;20060;-79
2022/07/21 07:29:16;;;;;;;2.92;2.30;;;25.60;61.90;;;;;;4842748;29;20444;-81
2022/07/21 07:31:42;;;;;;;4.35;2.50;;;25.60;61.90;;;;;;4857039;29;20041;-80
2022/07/21 07:34:09;;;;;;;3.25;2.25;;;25.60;61.90;;;;;;4826107;29;20125;-80
2022/07/21 07:36:35;;;;;;;4.13;3.08;;;25.70;62.00;;;;;;4827606;29;20045;-80
2022/07/21 07:39:03;;;;;;;3.17;2.60;;;25.70;62.10;;;;;;4841771;29;20120;-80
2022/07/21 07:41:32;;;;;;;4.82;2.63;;;25.70;62.00;;;;;;4843006;29;20379;-80
2022/07/21 07:43:59;;;;;;;4.88;2.95;;;25.70;62.10;;;;;;4842559;29;20042;-79
2022/07/21 07:46:26;;;;;;;3.42;2.60;;;25.70;62.10;;;;;;4825922;29;20102;-80
2022/07/21 07:48:52;;;;;;;4.72;2.92;;;25.60;62.00;;;;;;4841117;29;20040;-80
2022/07/21 07:51:18;;;;;;;5.13;2.72;;;25.60;62.00;;;;;;4841299;29;20495;-80
2022/07/21 07:53:43;;;;;;;3.92;2.35;;;25.70;62.20;;;;;;4842192;29;20132;-80
2022/07/21 07:56:09;;;;;;;4.85;3.15;;;25.70;62.10;;;;;;4840863;29;20034;-80
2022/07/21 07:58:36;;;;;;;3.97;2.53;;;25.70;62.20;;;;;;4840975;29;20057;-80
2022/07/21 08:01:03;;;;;;;3.83;2.80;;;25.70;62.20;;;;;;4856459;29;20502;-80
2022/07/21 08:03:29;;;;;;;3.92;2.22;;;25.70;62.10;;;;;;4842051;29;20454;-80
2022/07/21 08:05:58;;;;;;;4.70;2.65;;;25.70;62.80;;;;;;4855936;29;20041;-80
2022/07/21 08:08:24;;;;;;;3.75;2.78;;;25.70;62.30;;;;;;4840856;29;20067;-79
2022/07/21 08:10:50;;;;;;;3.28;2.35;;;25.70;62.30;;;;;;4841022;29;20505;-79
2022/07/21 08:13:17;;;;;;;4.30;2.95;;;25.70;62.30;;;;;;4824861;29;20124;-79
2022/07/21 08:15:45;;;;;;;3.55;2.75;;;25.60;62.20;;;;;;4825760;29;20117;-80
2022/07/21 08:18:11;;;;;;;5.35;3.15;;;25.60;62.30;;;;;;4840676;29;20451;-80
2022/07/21 08:20:38;;;;;;;3.80;2.60;;;25.60;62.30;;;;;;4842010;29;20097;-81
2022/07/21 08:23:05;;;;;;;3.03;2.53;;;25.60;62.30;;;;;;4825631;29;20096;-81
2022/07/21 08:25:31;;;;;;;3.72;3.05;;;25.60;62.30;;;;;;4840373;29;20072;-80
2022/07/21 08:27:57;;;;;;;2.88;2.40;;;25.60;62.30;;;;;;4840735;29;20227;-81
2022/07/21 08:30:23;;;;;;;3.33;2.35;;;25.60;62.30;;;;;;4825610;29;20531;-80
2022/07/21 08:32:49;;;;;;;4.00;2.60;;;25.60;62.30;;;;;;4825726;29;20076;-80
2022/07/21 08:35:15;;;;;;;4.45;2.70;;;25.60;62.30;;;;;;4841049;29;20061;-80
2022/07/21 08:37:41;;;;;;;4.28;2.83;;;25.70;62.40;;;;;;4841512;29;20112;-80
2022/07/21 08:40:09;;;;;;;4.00;2.60;;;25.70;62.30;;;;;;4841669;29;20025;-80
2022/07/21 08:42:37;;;;;;;3.13;2.42;;;25.70;62.30;;;;;;4840690;29;20049;-80
2022/07/21 08:45:04;;;;;;;3.83;2.80;;;25.70;62.30;;;;;;4840198;29;20034;-80
2022/07/21 08:47:31;;;;;;;4.18;2.75;;;25.70;62.20;;;;;;4840083;29;20451;-80
2022/07/21 08:49:57;;;;;;;4.13;2.72;;;25.70;62.20;;;;;;4841374;29;20113;-80
2022/07/21 08:52:24;;;;;;;4.50;3.00;;;25.70;62.20;;;;;;4841412;29;20048;-80
2022/07/21 08:54:49;;;;;;;3.65;2.60;;;25.70;62.10;;;;;;4841242;29;20044;-80
2022/07/21 08:57:16;;;;;;;3.47;2.50;;;25.80;62.20;;;;;;4839897;29;20121;-80
2022/07/21 08:59:42;;;;;;;3.35;2.67;;;25.70;62.10;;;;;;4841355;29;20480;-79
2022/07/21 09:02:35;;;;;;;4.18;2.67;;;25.80;62.10;;;;;;4841511;29;20026;-79
2022/07/21 09:05:04;;;;;;;3.58;2.70;;;25.80;62.10;;;;;;4841211;29;20037;-79
2022/07/21 09:07:50;;;;;;;4.10;2.70;;;25.80;62.10;;;;;;4841531;29;20044;-80
2022/07/21 09:10:25;;;;;;;4.70;2.92;;;25.80;62.70;;;;;;4841254;29;20030;-80
2022/07/21 09:12:55;;;;;;;4.38;2.90;;;25.80;62.10;;;;;;4825013;29;20594;-80
2022/07/21 09:15:22;;;;;;;3.78;2.53;;;25.70;62.10;;;;;;4840679;29;20038;-80
2022/07/21 09:18:06;;;;;;;3.05;2.40;;;25.80;62.30;;;;;;4840122;29;20456;-81
2022/07/21 09:20:32;;;;;;;3.80;2.83;;;25.70;62.20;;;;;;4840079;29;20030;-81
2022/07/21 09:23:06;;;;;;;4.05;2.78;;;25.70;62.20;;;;;;4840219;29;20402;-81
2022/07/21 09:25:40;;;;;;;3.20;2.60;;;25.70;62.30;;;;;;4826539;29;20032;-80
2022/07/21 09:28:26;;;;;;;3.30;2.70;;;25.70;62.20;;;;;;4843906;29;20030;-81
2022/07/21 09:31:01;;;;;;;3.38;2.67;;;25.70;62.30;;;;;;4843950;29;20037;-81
2022/07/21 09:33:27;;;;;;;3.72;2.67;;;25.70;62.20;;;;;;4828395;29;20063;-81
2022/07/21 09:35:57;;;;;;;4.18;2.67;;;25.80;62.30;;;;;;4843185;29;20042;-81
2022/07/21 09:38:24;;;;;;;5.03;2.88;;;25.70;62.30;;;;;;4843375;29;20078;-81
2022/07/21 09:40:50;;;;;;;3.60;2.75;;;25.70;62.30;;;;;;4828364;29;20037;-81
2022/07/21 09:43:32;;;;;;;3.15;2.25;;;25.70;62.30;;;;;;4843543;29;20033;-80
2022/07/21 09:46:01;;;;;;;5.18;3.00;;;25.70;62.30;;;;;;4812769;29;20040;-81
2022/07/21 09:48:33;;;;;;;3.67;2.78;;;25.80;62.40;;;;;;4843540;29;20559;-81
2022/07/21 09:51:21;;;;;;;4.75;2.85;;;25.80;62.40;;;;;;4828250;29;20080;-80
2022/07/21 09:53:58;;;;;;;3.85;2.50;;;25.80;62.40;;;;;;4827825;29;20082;-81
2022/07/21 09:56:26;;;;;;;3.53;2.78;;;25.80;62.30;;;;;;4842894;29;20029;-81
2022/07/21 09:58:54;;;;;;;4.18;3.00;;;25.70;62.30;;;;;;4843376;29;20030;-80
2022/07/21 10:01:21;;;;;;;4.63;2.95;;;25.80;62.40;;;;;;4843263;29;20128;-81
2022/07/21 10:03:49;;;;;;;3.30;2.47;;;25.80;62.40;;;;;;4844227;29;20109;-81
2022/07/21 10:06:17;;;;;;;3.28;2.63;;;25.80;62.40;;;;;;4842870;29;20050;-81
2022/07/21 10:08:44;;;;;;;4.13;2.80;;;25.70;62.40;;;;;;4827883;29;20030;-81
2022/07/21 10:11:10;;;;;;;3.55;2.72;;;25.70;62.40;;;;;;4827768;29;20512;-81
2022/07/21 10:13:38;;;;;;;3.38;2.22;;;25.70;62.40;;;;;;4842883;29;20030;-81
2022/07/21 10:16:04;;;;;;;3.60;2.70;;;25.80;62.50;;;;;;4827417;29;20385;-80
2022/07/21 10:18:37;;;;;;;4.85;2.97;;;25.80;62.50;;;;;;4827674;29;20042;-82
2022/07/21 10:21:11;;;;;;;3.80;2.70;;;25.80;62.40;;;;;;4843011;29;20037;-82
2022/07/21 10:23:41;;;;;;;3.47;2.63;;;25.80;62.40;;;;;;4827589;29;20042;-83
2022/07/21 10:26:09;;;;;;;4.30;2.75;;;25.80;62.40;;;;;;4843503;29;20049;-83
2022/07/21 10:28:36;;;;;;;4.32;2.78;;;25.80;62.40;;;;;;4842863;29;20448;-82
2022/07/21 10:31:28;;;;;;;3.90;2.78;;;25.80;62.40;;;;;;4842752;29;20040;-84
2022/07/21 10:34:00;;;;;;;3.72;2.78;;;25.80;62.30;;;;;;4841598;29;20179;-83
2022/07/21 10:36:28;;;;;;;4.20;2.95;;;25.80;62.40;;;;;;4868415;23;20049;-77
2022/07/21 10:39:06;;;;;;;3.28;2.55;;;25.80;62.40;;;;;;4862239;29;20034;-77
2022/07/21 10:41:44;;;;;;;5.18;3.17;;;25.80;62.40;;;;;;4860760;29;20074;-77
2022/07/21 10:44:30;;;;;;;3.38;2.60;;;25.80;62.40;;;;;;4860947;29;20048;-77
2022/07/21 10:47:20;;;;;;;3.65;2.50;;;25.80;62.50;;;;;;4861476;29;20041;-77
2022/07/21 10:49:57;;;;;;;3.72;2.58;;;25.70;62.40;;;;;;4861809;29;20038;-77
2022/07/21 10:52:36;;;;;;;3.83;2.70;;;25.80;62.50;;;;;;4861803;29;20109;-77
2022/07/21 10:55:11;;;;;;;3.85;2.80;;;25.70;62.40;;;;;;4861492;29;20566;-77
2022/07/21 10:57:38;;;;;;;3.92;2.83;;;25.70;62.40;;;;;;4861905;29;20057;-77
2022/07/21 11:00:33;;;;;;;3.33;2.63;;;25.80;62.50;;;;;;4861695;29;20482;-77
2022/07/21 11:03:20;;;;;;;4.28;3.25;;;25.80;62.50;;;;;;4860951;29;20068;-77
2022/07/21 11:06:05;;;;;;;4.13;2.63;;;25.80;62.50;;;;;;4859961;29;20030;-77
2022/07/21 11:08:40;;;;;;;3.70;2.40;;;25.80;62.50;;;;;;4860321;29;20025;-77
2022/07/21 11:11:27;;;;;;;3.97;3.00;;;25.80;62.50;;;;;;4861474;29;20026;-77
2022/07/21 11:14:04;;;;;;;3.60;2.78;;;25.70;62.40;;;;;;4861160;29;20030;-77
2022/07/21 11:16:41;;;;;;;4.18;2.92;;;25.70;62.50;;;;;;4860922;29;20049;-77
2022/07/21 11:19:30;;;;;;;2.80;2.22;;;25.80;62.50;;;;;;4861276;29;20440;-77
2022/07/21 11:21:58;;;;;;;3.08;2.47;;;25.80;62.60;;;;;;4861289;29;20444;-77
2022/07/21 11:24:26;;;;;;;4.03;2.83;;;25.80;62.50;;;;;;4860052;29;20079;-77
2022/07/21 11:27:03;;;;;;;3.05;2.50;;;25.80;62.50;;;;;;4860716;29;20116;-77
2022/07/21 11:29:29;;;;;;;3.35;2.50;;;25.80;62.50;;;;;;4844755;29;20055;-76
2022/07/21 11:31:56;;;;;;;3.15;2.55;;;25.80;62.50;;;;;;4861077;29;20033;-77
2022/07/21 11:34:23;;;;;;;4.18;2.80;;;25.80;62.50;;;;;;4859915;29;20034;-77
2022/07/21 11:36:59;;;;;;;3.35;2.50;;;25.80;62.50;;;;;;4860643;29;20033;-77
2022/07/21 11:39:25;;;;;;;4.50;2.58;;;25.80;62.60;;;;;;4844576;29;20057;-77
2022/07/21 11:41:53;;;;;;;3.63;2.80;;;25.80;62.60;;;;;;4860181;29;20034;-76
2022/07/21 11:44:25;;;;;;;3.70;2.90;;;25.80;62.60;;;;;;4859699;29;20057;-76
2022/07/21 11:46:52;;;;;;;3.17;2.50;;;25.80;62.60;;;;;;4860452;29;20053;-76
2022/07/21 11:49:18;;;;;;;3.30;2.40;;;25.80;62.70;;;;;;4858654;29;20375;-76
2022/07/21 11:51:55;;;;;;;3.10;2.55;;;25.80;62.60;;;;;;4860764;29;20066;-76
2022/07/21 11:54:36;;;;;;;3.75;2.75;;;25.80;62.60;;;;;;4860770;29;20033;-76
2022/07/21 11:57:09;;;;;;;3.80;2.60;;;25.80;62.60;;;;;;4843780;29;20041;-77
2022/07/21 11:59:38;;;;;;;3.53;2.63;;;25.80;62.50;;;;;;4859656;29;20037;-77
2022/07/21 12:02:07;;;;;;;3.85;2.67;;;25.80;62.50;;;;;;4859376;29;20087;-77
2022/07/21 12:04:40;;;;;;;3.20;2.53;;;25.80;62.50;;;;;;4859538;29;20038;-76
2022/07/21 12:07:21;;;;;;;4.20;2.65;;;25.80;62.40;;;;;;4860275;29;20056;-76
2022/07/21 12:10:02;;;;;;;3.35;2.45;;;25.80;62.40;;;;;;5109421;27;20376;-76
2022/07/21 12:12:39;;;;;;;3.95;2.88;;;25.80;62.50;;;;;;5092072;28;20112;-76
2022/07/21 12:15:14;;;;;;;3.22;2.40;;;25.80;62.50;;;;;;5091509;28;20121;-76
2022/07/21 12:17:51;;;;;;;4.22;2.60;;;25.80;62.40;;;;;;5109767;28;20049;-76
2022/07/21 12:20:26;;;;;;;4.40;3.10;;;25.80;62.40;;;;;;5108521;28;20077;-76
2022/07/21 12:22:52;;;;;;;4.03;3.00;;;25.80;62.40;;;;;;5108369;28;20035;-75
2022/07/21 12:25:29;;;;;;;4.30;2.88;;;25.80;63.00;;;;;;5109238;28;20020;-76
2022/07/21 12:27:56;;;;;;;3.30;2.67;;;25.80;62.50;;;;;;5108179;28;20438;-76
2022/07/21 12:30:32;;;;;;;3.40;2.72;;;25.80;62.50;;;;;;5109321;28;20395;-76
2022/07/21 12:33:07;;;;;;;3.80;2.50;;;25.80;62.50;;;;;;5091216;28;20040;-76
2022/07/21 12:35:34;;;;;;;2.83;2.38;;;25.80;62.50;;;;;;5108735;28;20107;-76
2022/07/21 12:38:02;;;;;;;3.92;2.83;;;25.80;62.60;;;;;;5109107;28;20052;-76
2022/07/21 12:40:29;;;;;;;5.65;2.80;;;25.80;62.50;;;;;;5091198;28;20085;-76
2022/07/21 12:43:25;;;;;;;3.50;2.50;;;25.70;62.50;;;;;;5109134;28;20103;-76
2022/07/21 12:45:59;;;;;;;4.20;2.63;;;25.80;62.60;;;;;;5107425;28;20059;-76
2022/07/21 12:48:29;;;;;;;3.65;2.80;;;25.80;62.60;;;;;;5109059;28;20027;-76
2022/07/21 12:51:11;;;;;;;3.60;2.80;;;25.80;62.60;;;;;;5107795;28;20059;-76
2022/07/21 12:53:43;;;;;;;5.13;2.70;;;25.70;62.60;;;;;;5109274;28;20112;-76
2022/07/21 12:56:11;;;;;;;4.47;2.60;;;25.70;62.60;;;;;;5108535;28;20521;-77
2022/07/21 12:58:38;;;;;;;4.38;2.85;;;25.70;62.60;;;;;;5108772;28;20484;-77